Terminal Aerodrome Forecast
Issued by NWS

Home | Current Version | Previous Version | Text Only | Print | Product List | Glossary Off
Versions: 1 2 3 4 5 6 7 8 9 10 11 12 13 14 15 16 17 18 19

000
FTUS43 KGRB 280500
TAFCWA
TAF
KCWA 280520Z 2806/2906 00000KT 6SM BR SCT008 OVC015
      TEMPO 2808/2812 4SM BR BKN008
     FM281200 00000KT 4SM BR BKN008 OVC012
     FM281600 14006KT 6SM BR SCT010 OVC018
     FM282000 14009KT P6SM SCT022 BKN050 WS016/19035KT
     FM290200 13005KT 4SM BR BKN015 OVC030 PROB30 2902/2906 2SM
      -FZRASNPL
      AMD LTD TO CLD VIS AND WIND TIL 281200=

USA.gov is the U.S. government's official web portal to all federal, state and local government web resources and services.